Latest Coastal Weather Observations for Smithton

IDV60701

Issued at 3:01 pm EDT Saturday 31 January 2015 (issued every 10 minutes, with the page automatically refreshed every 10 minutes)

About coastal observations | Map of coastal stations | Coastal observations for VIC | Marine services | Other Formats
Station Details ID: 091292 Name: SMITHTON AERODROME Lat: -40.83 Lon: 145.08 Height: 7.5 m
Data from the previous 72 hours. | See also: Recent months at Smithton
Date/Time
EDT
Temp

°C
Wind Pressure Rain
since 9am
mm
Weather Cloud Vis
km
Sea
Height
m
Swell
Dir
 
Speed
knots
Gust
knots
hPa Trend Height
m
Period
s
Dir
31/03:00pm 23.2 S 15 20 1009.2 - 0.0 - - - - - - -
31/02:30pm 23.0 SSW 17 21 1009.3 - 0.0 - - - - - - -
31/02:00pm 23.2 SSW 15 22 1009.4 - 0.0 - - - - - - -
31/01:30pm 22.2 SSW 15 21 1009.8 - 0.0 - - - - - - -
31/01:00pm 21.5 SSW 14 19 1010.2 - 0.0 - - - - - - -
31/12:30pm 21.7 S 13 17 1010.3 - 0.0 - - - - - - -
31/12:00pm 21.2 S 13 18 1010.3 - 0.0 - - - - - - -
31/11:30am 20.1 S 15 19 1010.6 - 0.0 - - - - - - -
31/11:00am 19.2 S 12 16 1010.9 - 0.0 - - - - - - -
31/10:30am 18.0 S 17 22 1011.0 - 0.0 - - - - - - -
31/10:00am 17.8 S 14 19 1011.1 - 0.0 - - - - - - -
31/09:30am 16.7 S 13 17 1011.1 - 0.0 - - - - - - -
31/09:00am 15.7 S 11 17 1011.2 - 0.0 - - - - - - -
31/08:30am 14.6 S 12 17 1011.1 - 0.0 - - - - - - -
31/08:00am 13.4 S 12 16 1011.0 - 0.0 - - - - - - -
31/07:30am 12.2 S 10 14 1011.0 - 0.0 - - - - - - -
31/07:00am 10.9 S 9 12 1011.0 - 0.0 - - - - - - -
31/06:30am 10.2 SSW 10 12 1011.1 - 0.0 - - - - - - -
31/06:00am 10.4 SSW 10 12 1011.0 - 0.0 - - - - - - -
31/05:30am 9.8 SSW 9 11 1010.8 - 0.0 - - - - - - -
31/05:00am 9.6 S 8 9 1010.7 - 0.0 - - - - - - -
31/04:30am 10.4 SSW 9 10 1010.9 - 0.0 - - - - - - -
31/04:00am 10.8 SSW 11 14 1011.1 - 0.0 - - - - - - -
31/03:30am 10.2 SSW 8 10 1011.3 - 0.0 - - - - - - -
31/03:00am 10.3 SSW 9 11 1011.4 - 0.0 - - - - - - -
31/02:30am 10.7 SSW 9 10 1011.5 - 0.0 - - - - - - -
31/02:00am 11.3 S 9 9 1011.7 - 0.0 - - - - - - -
31/01:30am 11.4 S 9 11 1012.0 - 0.0 - - - - - - -
31/01:00am 11.5 S 9 10 1012.1 - 0.0 - - - - - - -
31/12:30am 12.3 S 8 9 1012.1 - 0.0 - - - - - - -
31/12:00am 13.5 S 9 12 1012.2 - 0.0 - - - - - - -
 
Date/Time
EDT
Temp

°C
Wind Pressure Rain
since 9am
mm
Weather Cloud Vis
km
Sea
Height
m
Swell
Dir
 
Speed
knots
Gust
knots
hPa Trend Height
m
Period
s
Dir
30/11:30pm 14.1 S 11 12 1012.1 - 0.0 - - - - - - -
30/11:00pm 15.4 S 10 11 1012.1 - 0.0 - - - - - - -
30/10:30pm 16.0 S 10 12 1012.2 - 0.0 - - - - - - -
30/10:00pm 15.9 S 9 11 1012.2 - 0.0 - - - - - - -
30/09:30pm 16.5 SSW 11 15 1011.9 - 0.0 - - - - - - -
30/09:00pm 17.0 SSW 11 14 1011.7 - 0.0 - - - - - - -
30/08:30pm 17.7 SSW 9 13 1011.6 - 0.0 - - - - - - -
30/08:00pm 19.1 S 12 17 1011.5 - 0.0 - - - - - - -
30/07:30pm 20.3 S 15 20 1011.5 - 0.0 - - - - - - -
30/07:00pm 21.1 S 11 15 1011.4 - 0.0 - - - - - - -
30/06:30pm 22.1 SSW 17 22 1011.3 - 0.0 - - - - - - -
30/06:00pm 23.0 SW 17 21 1011.3 - 0.0 - - - - - - -
30/05:30pm 23.1 SW 16 22 1011.4 - 0.0 - - - - - - -
30/05:00pm 23.6 SSW 14 21 1011.7 - 0.0 - - - - - - -
30/04:41pm 24.2 WSW 15 22 1011.9 - 0.0 - - - - - - -
30/04:30pm 24.4 S 7 11 1012.1 - 0.0 - - - - - - -
30/04:00pm 24.0 WSW 8 14 1012.5 - 0.0 - - - - - - -
30/03:30pm 22.7 NNW 12 16 1012.8 - 0.0 - - - - - - -
30/03:00pm 22.0 NNW 12 15 1013.5 - 0.0 - - - - - - -
30/02:30pm 22.5 NNW 12 17 1014.0 - 0.0 - - - - - - -
30/02:00pm 20.4 W 6 10 1014.4 - 0.0 - - - - - - -
30/01:30pm 20.4 W 6 9 1014.9 - 0.0 - - - - - - -
30/01:00pm 20.1 W 5 8 1015.4 - 0.0 - - - - - - -
30/12:30pm 19.3 W 3 9 1016.0 - 0.0 - - - - - - -
30/12:00pm 19.7 SSW 6 11 1016.4 - 0.0 - - - - - - -
30/11:30am 19.0 S 5 8 1016.8 - 0.0 - - - - - - -
30/11:00am 18.1 SW 5 8 1017.0 - 0.0 - - - - - - -
30/10:30am 17.8 S 8 11 1017.2 - 0.0 - - - - - - -
30/10:00am 17.3 S 8 11 1017.6 - 0.0 - - - - - - -
30/09:30am 15.7 S 8 12 1017.8 - 0.0 - - - - - - -
30/09:00am 14.5 S 7 10 1018.1 - 0.2 - - - - - - -
30/08:30am 13.0 S 6 7 1018.2 - 0.2 - - - - - - -
30/08:00am 11.4 S 5 7 1018.1 - 0.2 - - - - - - -
30/07:30am 9.9 S 6 8 1018.1 - 0.2 - - - - - - -
30/07:00am 8.6 SSE 8 9 1018.1 - 0.2 - - - - - - -
30/06:30am 7.5 SSE 5 6 1017.8 - 0.2 - - - - - - -
30/06:00am 6.0 SSE 4 5 1017.7 - 0.2 - - - - - - -
30/05:30am 6.4 SSE 5 6 1017.7 - 0.2 - - - - - - -
30/05:00am 7.3 SSE 4 5 1017.7 - 0.2 - - - - - - -
30/04:30am 7.8 SSE 4 5 1017.9 - 0.2 - - - - - - -
30/04:00am 8.5 SSE 5 7 1018.1 - 0.2 - - - - - - -
30/03:30am 8.0 E 4 5 1018.2 - 0.2 - - - - - - -
30/03:00am 8.1 E 3 4 1018.5 - 0.2 - - - - - - -
30/02:30am 7.8 E 3 4 1018.6 - 0.2 - - - - - - -
30/02:00am 8.0 E 3 4 1018.8 - 0.2 - - - - - - -
30/01:30am 9.8 SSW 4 6 1019.0 - 0.2 - - - - - - -
30/01:00am 8.1 CALM 0 2 1019.1 - 0.2 - - - - - - -
30/12:30am 8.7 SSW 3 4 1019.4 - 0.2 - - - - - - -
30/12:00am 8.5 WSW 2 4 1019.4 - 0.2 - - - - - - -
 
Date/Time
EDT
Temp

°C
Wind Pressure Rain
since 9am
mm
Weather Cloud Vis
km
Sea
Height
m
Swell
Dir
 
Speed
knots
Gust
knots
hPa Trend Height
m
Period
s
Dir
29/11:30pm 10.6 CALM 0 0 1019.2 - 0.2 - - - - - - -
29/11:00pm 11.2 CALM 0 0 1019.3 - 0.2 - - - - - - -
29/10:30pm 11.8 CALM 0 0 1019.4 - 0.2 - - - - - - -
29/10:00pm 13.0 WNW 3 4 1019.5 - 0.2 - - - - - - -
29/09:30pm 12.8 WNW 6 7 1019.3 - 0.2 - - - - - - -
29/09:00pm 14.2 W 7 8 1019.3 - 0.2 - - - - - - -
29/08:30pm 16.5 W 7 9 1019.5 - 0.2 - - - - - - -
29/08:00pm 18.0 WNW 7 8 1019.5 - 0.2 - - - - - - -
29/07:30pm 18.1 W 7 9 1019.4 - 0.2 - - - - - - -
29/07:00pm 18.2 W 8 14 1019.4 - 0.2 - - - - - - -
29/06:30pm 18.1 WSW 9 13 1019.5 - 0.2 - - - - - - -
29/06:00pm 18.5 WSW 10 13 1019.8 - 0.2 - - - - - - -
29/05:30pm 19.3 WNW 11 15 1019.9 - 0.2 - - - - - - -
29/05:00pm 19.5 W 9 11 1020.4 - 0.2 - - - - - - -
29/04:30pm 19.2 WNW 9 13 1020.6 - 0.2 - - - - - - -
29/04:00pm 19.2 WNW 10 14 1020.8 - 0.2 - - - - - - -
29/03:30pm 19.0 WNW 12 19 1021.0 - 0.2 - - - - - - -
29/03:00pm 18.9 NNW 11 13 1021.2 - 0.2 - - - - - - -
29/02:30pm 20.4 N 11 17 1021.4 - 0.2 - - - - - - -
29/02:00pm 18.7 N 9 15 1021.9 - 0.2 - - - - - - -
29/01:30pm 19.4 N 11 17 1022.2 - 0.2 - - - - - - -
29/01:00pm 20.3 NNE 8 14 1022.3 - 0.2 - - - - - - -
29/12:30pm 20.1 N 8 13 1022.6 - 0.2 - - - - - - -
29/12:00pm 19.7 WNW 5 7 1022.7 - 0.0 - - - - - - -
29/09:30am 16.6 E 6 9 1023.4 - 0.0 - - - - - - -
29/09:00am 14.6 S 4 6 1023.5 - 0.0 - - - - - - -
29/08:30am 13.7 S 7 9 1023.4 - 0.0 - - - - - - -
29/08:00am 12.3 S 7 9 1023.2 - 0.0 - - - - - - -
29/07:30am 11.4 S 8 10 1022.9 - 0.0 - - - - - - -
29/07:00am 10.6 S 6 7 1022.7 - 0.0 - - - - - - -
29/06:30am 10.0 S 6 7 1022.6 - 0.0 - - - - - - -
29/06:00am 9.2 S 7 8 1022.5 - 0.0 - - - - - - -
29/05:30am 9.8 S 4 5 1022.4 - 0.0 - - - - - - -
29/05:00am 10.4 S 5 6 1022.2 - 0.0 - - - - - - -
29/04:30am 10.3 S 4 6 1022.2 - 0.0 - - - - - - -
29/04:00am 9.9 ESE 5 6 1022.1 - 0.0 - - - - - - -
29/03:30am 11.2 ESE 3 4 1022.2 - 0.0 - - - - - - -
29/03:00am 11.1 ESE 4 8 1022.3 - 0.0 - - - - - - -
29/02:30am 11.2 E 6 9 1022.4 - 0.0 - - - - - - -
29/02:00am 12.1 E 9 14 1022.5 - 0.0 - - - - - - -
29/01:30am 12.8 E 8 11 1022.7 - 0.0 - - - - - - -
29/01:00am 11.5 ESE 7 9 1022.6 - 0.0 - - - - - - -
29/12:30am 10.0 NE 4 5 1022.7 - 0.0 - - - - - - -
29/12:00am 10.9 NE 4 5 1022.6 - 0.0 - - - - - - -
 
Date/Time
EDT
Temp

°C
Wind Pressure Rain
since 9am
mm
Weather Cloud Vis
km
Sea
Height
m
Swell
Dir
 
Speed
knots
Gust
knots
hPa Trend Height
m
Period
s
Dir
28/11:30pm 13.1 NE 6 9 1022.6 - 0.0 - - - - - - -
28/11:00pm 13.2 NE 6 8 1022.7 - 0.0 - - - - - - -
28/10:30pm 12.0 E 5 6 1022.6 - 0.0 - - - - - - -
28/10:00pm 12.4 NNE 5 6 1022.4 - 0.0 - - - - - - -
28/09:30pm 13.1 CALM 0 0 1022.1 - 0.0 - - - - - - -
28/09:00pm 15.2 NNE 4 5 1021.7 - 0.0 - - - - - - -
28/08:30pm 16.2 NNE 7 9 1021.7 - 0.0 - - - - - - -
28/08:00pm 16.7 N 9 13 1021.4 - 0.0 - - - - - - -
28/07:30pm 17.7 N 11 15 1021.2 - 0.0 - - - - - - -
28/07:00pm 18.0 N 15 19 1021.1 - 0.0 - - - - - - -
28/06:30pm 17.8 NNE 16 19 1020.9 - 0.0 - - - - - - -
28/06:00pm 18.4 NNE 16 21 1020.7 - 0.0 - - - - - - -
28/05:30pm 19.1 NNE 16 20 1020.6 - 0.0 - - - - - - -
28/05:00pm 18.6 NE 18 22 1020.5 - 0.0 - - - - - - -
28/04:30pm 18.8 NE 17 22 1020.7 - 0.0 - - - - - - -
28/04:00pm 19.3 NNE 16 21 1020.8 - 0.0 - - - - - - -
28/03:30pm 19.0 NNE 17 22 1021.2 - 0.0 - - - - - - -

Other Formats:

Comma delimited format used in spreadsheet applications
http://www.bom.gov.au/fwo/IDV60701/IDV60701.94953.axf

JavaScript Object Notation format (JSON) in row-major order
http://www.bom.gov.au/fwo/IDV60701/IDV60701.94953.json